Woodleaf, California
Current Conditions -  °F | °C
As of 11:15 AM on Sunday 21 Dec 2014 (Local Time) from KGOO Reporting Station
Overcast Overcast  
Wind Chill: 50°   Ceiling: 100
Heat Index: 50°   Visibility: 0mi
Dew Point: 50°   Wind: 6mph
Humidity: 100%   Direction: 160°SSE
Pressure: 30.31"   Gusts: NA
Location:  39.4476°N, 121.176°W
Report Text: KGOO 211915Z AUTO 16005KT M1/4SM OVC001 10/10 A3031 RMK AO1
Loading
Personal Weather Stations






























Interactive Weather Map New forecast layout! Learn more

10-Day Weather Forecast

Advertisements
Track Severe Weather on mobile